Airfield :
LOGIN :

Register | Disclaimer

   EN    FR    IT 

 










Legend :    VFR   Marginal VFR   IFR   Intensive IFR   Very Intensive IFR
Visi :
Ceiling :
>= 8 km
>= 3000ft
5 to 8 km
1000 to 3000 ft
1500m to 5 km
500 to 1000 ft
800 to 1500m
200 to 500 ft
< 800m
< 200 ft
Symbols :   Thunderstorms  Fog  Heavy snow  Heavy precipitations  Wind > 20 kt
SIGMETs :     Misc.  Thunderstorms  Icing  Turbulence  Mountain Waves  Volcanic Ashes







- Airport Elevation : 433 ft
- IATA code : CCF
- Download approach charts


LFMK - Carcassonne

CURRENT METAR :
  • 301600Z AUTO 32020G39KT 270V080 9999 3100 RA FEW015/// OVC098/// ///CB 13/09 Q1006 TEMPO VRB40G60KT 3000 SHGR BR OVC007 BKN030CB

EXPIRED METARs :
  • 301530Z AUTO 07016KT CAVOK 19/12 Q1002 TEMPO VRB40G60KT 3000 SHGR BR OVC007 BKN030CB
  • 301500Z AUTO 08018KT CAVOK 21/12 Q1002 TEMPO VRB40G60KT 3000 SHGR BR OVC007 BKN030CB
  • 301430Z AUTO 08020KT CAVOK 22/12 Q1002 TEMPO VRB40G60KT 3000 SHGR BR OVC007 BKN030CB
  • 301400Z AUTO 08019KT CAVOK 23/10 Q1002 TEMPO VRB40G70KT 3000 SHGR BR OVC007 BKN030CB

TAF TAF LFMK
Valid from the 30 at 15:00 until the 01 at 15:00 UTC


301400Z 3015/0115 08015KT CAVOK
BECMG 3015/3017 29020KT BKN020
TEMPO 3015/3018 VRB40G60KT TSRA SQ OVC007 BKN030CB
PROB30 3015/3018 3000 SHGR BR
BECMG 3018/3020 29010KT SCT030TCU
BECMG 0100/0102 CAVOK
PROB30
TEMPO 0109/0112 -SHRA BKN015
No reported NOTAMs for that airfield.
3 SIGMETs reported for the Bordeaux FIR (LFBB) :
 
Severe turbulence
LFBB SIGMET 8 VALID 301200/301600 LFPW
LFBB BORDEAUX FIR/UIR SEV TURB FCST WI N4300 W00115 - N4300 W00145 - N4545 W00145 - N4545 W00030 SFC/FL070 MOV E 15KT NC=
Severe turbulence
LFBB SIGMET 14 VALID 301600/302000 LFPW
LFBB BORDEAUX FIR/UIR SEV TURB FCST WI N4630 E00300 - N4215 E00230 - N4230 E00145 - N4600 E00100 SFC/FL070 STNR WKN=
Squall lined thunderstorms
LFBB SIGMET 13 VALID 301500/301700 LFPW
LFBB BORDEAUX FIR/UIR SQL TS OBS WI N4715 E00200 - N4645 E00230 - N4300 E00200 - N4300 E00115 TOP FL300 MOV E 15KT NC=



MET'MAP, your aeronautical weather chart ! - Copyright ORBIFLY December 2007 - Disclaimer

ORBIFLY MET'MAP TEAM :

Programming & Development : Alexandra Zaïnal
Concept & Development : Baudouin d'Aumeries
Co-Development & Prog : Marc-Olivier Méhu
Technical & hardware support : Manuel Goepfert

Contact : metmap@orbifly.com




SOURCES & CREDITS :

   NOAA